sensor_id;sensor_type;location;lat;lon;timestamp;P1;durP1;ratioP1;P2;durP2;ratioP2
44662;SDS011;30381;52.754;18.258;2023-02-01T00:19:38;15.30;;;2.30;;
44662;SDS011;30381;52.754;18.258;2023-02-01T00:22:05;16.30;;;2.90;;
44662;SDS011;30381;52.754;18.258;2023-02-01T00:36:31;15.50;;;2.50;;
44662;SDS011;30381;52.754;18.258;2023-02-01T00:38:57;14.00;;;3.20;;
44662;SDS011;30381;52.754;18.258;2023-02-01T00:41:23;16.10;;;3.50;;
44662;SDS011;30381;52.754;18.258;2023-02-01T00:43:50;17.20;;;2.60;;
44662;SDS011;30381;52.754;18.258;2023-02-01T00:46:18;15.90;;;2.90;;
44662;SDS011;30381;52.754;18.258;2023-02-01T00:48:47;15.50;;;2.60;;
44662;SDS011;30381;52.754;18.258;2023-02-01T00:51:14;15.70;;;3.80;;
44662;SDS011;30381;52.754;18.258;2023-02-01T00:53:44;14.50;;;2.50;;
44662;SDS011;30381;52.754;18.258;2023-02-01T00:56:13;19.10;;;3.20;;
44662;SDS011;30381;52.754;18.258;2023-02-01T00:58:43;12.50;;;2.70;;
44662;SDS011;30381;52.754;18.258;2023-02-01T01:01:12;22.50;;;3.30;;
44662;SDS011;30381;52.754;18.258;2023-02-01T01:03:57;14.60;;;2.80;;
44662;SDS011;30381;52.754;18.258;2023-02-01T01:06:29;12.90;;;2.90;;
44662;SDS011;30381;52.754;18.258;2023-02-01T01:09:00;19.90;;;4.70;;
44662;SDS011;30381;52.754;18.258;2023-02-01T01:11:39;19.50;;;3.40;;
44662;SDS011;30381;52.754;18.258;2023-02-01T01:14:06;17.30;;;3.00;;
44662;SDS011;30381;52.754;18.258;2023-02-01T01:16:33;18.50;;;3.00;;
44662;SDS011;30381;52.754;18.258;2023-02-01T01:19:00;15.70;;;3.10;;
44662;SDS011;30381;52.754;18.258;2023-02-01T01:21:29;19.30;;;3.00;;
44662;SDS011;30381;52.754;18.258;2023-02-01T01:23:57;14.80;;;2.50;;
44662;SDS011;30381;52.754;18.258;2023-02-01T01:26:25;16.20;;;2.30;;
44662;SDS011;30381;52.754;18.258;2023-02-01T01:28:57;15.40;;;2.40;;
44662;SDS011;30381;52.754;18.258;2023-02-01T01:31:24;17.70;;;2.70;;
44662;SDS011;30381;52.754;18.258;2023-02-01T01:33:53;17.50;;;2.90;;
44662;SDS011;30381;52.754;18.258;2023-02-01T01:36:21;14.90;;;2.60;;
44662;SDS011;30381;52.754;18.258;2023-02-01T01:38:49;11.20;;;2.70;;
44662;SDS011;30381;52.754;18.258;2023-02-01T01:41:17;14.80;;;2.10;;
44662;SDS011;30381;52.754;18.258;2023-02-01T01:46:31;17.60;;;2.40;;
44662;SDS011;30381;52.754;18.258;2023-02-01T01:49:19;19.70;;;2.70;;
44662;SDS011;30381;52.754;18.258;2023-02-01T01:51:59;20.60;;;3.10;;
44662;SDS011;30381;52.754;18.258;2023-02-01T01:56:59;14.10;;;2.10;;
44662;SDS011;30381;52.754;18.258;2023-02-01T01:59:34;13.90;;;2.70;;
44662;SDS011;30381;52.754;18.258;2023-02-01T02:02:04;15.90;;;2.30;;
44662;SDS011;30381;52.754;18.258;2023-02-01T02:04:31;13.70;;;2.30;;
44662;SDS011;30381;52.754;18.258;2023-02-01T02:07:00;21.20;;;3.10;;
44662;SDS011;30381;52.754;18.258;2023-02-01T02:09:31;16.00;;;2.00;;
44662;SDS011;30381;52.754;18.258;2023-02-01T02:11:57;17.00;;;2.50;;
44662;SDS011;30381;52.754;18.258;2023-02-01T02:14:24;21.40;;;2.90;;
44662;SDS011;30381;52.754;18.258;2023-02-01T02:19:51;21.60;;;3.10;;
44662;SDS011;30381;52.754;18.258;2023-02-01T02:22:33;19.90;;;4.20;;
44662;SDS011;30381;52.754;18.258;2023-02-01T02:25:29;15.40;;;2.90;;
44662;SDS011;30381;52.754;18.258;2023-02-01T02:36:19;17.60;;;2.20;;
44662;SDS011;30381;52.754;18.258;2023-02-01T02:42:05;22.60;;;2.90;;
44662;SDS011;30381;52.754;18.258;2023-02-01T02:45:09;15.90;;;2.10;;
44662;SDS011;30381;52.754;18.258;2023-02-01T02:50:45;18.00;;;2.40;;
44662;SDS011;30381;52.754;18.258;2023-02-01T02:53:39;17.70;;;2.30;;
44662;SDS011;30381;52.754;18.258;2023-02-01T02:56:36;15.90;;;3.20;;
44662;SDS011;30381;52.754;18.258;2023-02-01T02:59:24;17.90;;;3.20;;
44662;SDS011;30381;52.754;18.258;2023-02-01T03:02:14;18.20;;;2.90;;
44662;SDS011;30381;52.754;18.258;2023-02-01T03:05:02;21.40;;;2.50;;
44662;SDS011;30381;52.754;18.258;2023-02-01T03:13:44;20.60;;;3.10;;
44662;SDS011;30381;52.754;18.258;2023-02-01T03:16:21;19.60;;;2.90;;
44662;SDS011;30381;52.754;18.258;2023-02-01T03:18:53;22.40;;;4.30;;
44662;SDS011;30381;52.754;18.258;2023-02-01T03:21:33;20.50;;;2.40;;
44662;SDS011;30381;52.754;18.258;2023-02-01T03:24:37;15.30;;;3.20;;
44662;SDS011;30381;52.754;18.258;2023-02-01T03:29:40;20.20;;;3.60;;
44662;SDS011;30381;52.754;18.258;2023-02-01T03:32:12;16.60;;;2.40;;
44662;SDS011;30381;52.754;18.258;2023-02-01T03:34:38;22.70;;;3.20;;
44662;SDS011;30381;52.754;18.258;2023-02-01T03:37:06;21.10;;;2.60;;
44662;SDS011;30381;52.754;18.258;2023-02-01T03:39:48;18.20;;;3.10;;
44662;SDS011;30381;52.754;18.258;2023-02-01T03:42:24;20.70;;;2.90;;
44662;SDS011;30381;52.754;18.258;2023-02-01T03:45:19;17.80;;;2.60;;
44662;SDS011;30381;52.754;18.258;2023-02-01T03:47:50;18.60;;;2.90;;
44662;SDS011;30381;52.754;18.258;2023-02-01T03:50:20;18.80;;;3.60;;
44662;SDS011;30381;52.754;18.258;2023-02-01T03:52:57;17.70;;;2.50;;
44662;SDS011;30381;52.754;18.258;2023-02-01T03:55:29;18.90;;;2.80;;
44662;SDS011;30381;52.754;18.258;2023-02-01T04:00:35;17.20;;;2.60;;
44662;SDS011;30381;52.754;18.258;2023-02-01T04:03:03;17.30;;;3.20;;
44662;SDS011;30381;52.754;18.258;2023-02-01T04:05:32;17.90;;;3.50;;
44662;SDS011;30381;52.754;18.258;2023-02-01T04:08:00;13.30;;;2.80;;
44662;SDS011;30381;52.754;18.258;2023-02-01T04:10:32;15.30;;;2.40;;
44662;SDS011;30381;52.754;18.258;2023-02-01T04:12:58;20.80;;;3.40;;
44662;SDS011;30381;52.754;18.258;2023-02-01T04:15:25;18.70;;;2.80;;
44662;SDS011;30381;52.754;18.258;2023-02-01T04:17:51;21.80;;;2.80;;
44662;SDS011;30381;52.754;18.258;2023-02-01T04:20:23;20.30;;;2.50;;
44662;SDS011;30381;52.754;18.258;2023-02-01T04:22:50;14.80;;;2.20;;
44662;SDS011;30381;52.754;18.258;2023-02-01T04:25:16;14.90;;;2.50;;
44662;SDS011;30381;52.754;18.258;2023-02-01T04:27:44;20.20;;;2.30;;
44662;SDS011;30381;52.754;18.258;2023-02-01T04:30:12;18.30;;;2.80;;
44662;SDS011;30381;52.754;18.258;2023-02-01T04:32:48;28.90;;;10.30;;
44662;SDS011;30381;52.754;18.258;2023-02-01T04:35:20;14.40;;;2.90;;
44662;SDS011;30381;52.754;18.258;2023-02-01T04:37:46;15.80;;;3.10;;
44662;SDS011;30381;52.754;18.258;2023-02-01T04:40:12;18.90;;;2.60;;
44662;SDS011;30381;52.754;18.258;2023-02-01T04:42:38;16.50;;;2.90;;
44662;SDS011;30381;52.754;18.258;2023-02-01T04:45:05;17.10;;;2.60;;
44662;SDS011;30381;52.754;18.258;2023-02-01T04:47:36;21.70;;;2.70;;
44662;SDS011;30381;52.754;18.258;2023-02-01T04:50:03;15.80;;;2.60;;
44662;SDS011;30381;52.754;18.258;2023-02-01T04:52:30;16.40;;;2.90;;
44662;SDS011;30381;52.754;18.258;2023-02-01T04:54:56;20.00;;;2.70;;
44662;SDS011;30381;52.754;18.258;2023-02-01T04:57:24;19.90;;;2.90;;
44662;SDS011;30381;52.754;18.258;2023-02-01T04:59:51;18.90;;;2.80;;
44662;SDS011;30381;52.754;18.258;2023-02-01T05:02:21;18.40;;;3.40;;
44662;SDS011;30381;52.754;18.258;2023-02-01T05:04:47;23.10;;;3.50;;
44662;SDS011;30381;52.754;18.258;2023-02-01T05:07:13;20.00;;;3.80;;
44662;SDS011;30381;52.754;18.258;2023-02-01T05:09:40;16.30;;;2.80;;
44662;SDS011;30381;52.754;18.258;2023-02-01T05:12:06;17.90;;;3.50;;
44662;SDS011;30381;52.754;18.258;2023-02-01T05:14:51;17.20;;;2.70;;
44662;SDS011;30381;52.754;18.258;2023-02-01T05:17:17;22.10;;;2.80;;
44662;SDS011;30381;52.754;18.258;2023-02-01T05:19:44;25.20;;;2.40;;
44662;SDS011;30381;52.754;18.258;2023-02-01T05:22:10;25.30;;;4.00;;
44662;SDS011;30381;52.754;18.258;2023-02-01T05:24:37;26.00;;;3.70;;
44662;SDS011;30381;52.754;18.258;2023-02-01T05:27:03;24.00;;;4.90;;
44662;SDS011;30381;52.754;18.258;2023-02-01T05:29:29;25.50;;;3.80;;
44662;SDS011;30381;52.754;18.258;2023-02-01T05:31:56;16.50;;;3.60;;
44662;SDS011;30381;52.754;18.258;2023-02-01T05:34:22;17.40;;;3.50;;
44662;SDS011;30381;52.754;18.258;2023-02-01T05:36:49;16.50;;;3.30;;
44662;SDS011;30381;52.754;18.258;2023-02-01T05:39:16;16.00;;;2.80;;
44662;SDS011;30381;52.754;18.258;2023-02-01T05:41:49;17.10;;;3.40;;
44662;SDS011;30381;52.754;18.258;2023-02-01T05:44:16;17.70;;;3.20;;
44662;SDS011;30381;52.754;18.258;2023-02-01T05:46:45;18.70;;;3.00;;
44662;SDS011;30381;52.754;18.258;2023-02-01T05:49:12;23.50;;;3.20;;
44662;SDS011;30381;52.754;18.258;2023-02-01T05:51:40;17.10;;;3.90;;
44662;SDS011;30381;52.754;18.258;2023-02-01T05:54:07;15.70;;;2.70;;
44662;SDS011;30381;52.754;18.258;2023-02-01T05:56:40;26.00;;;3.60;;
44662;SDS011;30381;52.754;18.258;2023-02-01T05:59:08;18.90;;;3.10;;
44662;SDS011;30381;52.754;18.258;2023-02-01T06:01:36;14.60;;;3.30;;
44662;SDS011;30381;52.754;18.258;2023-02-01T06:04:03;11.90;;;3.60;;
44662;SDS011;30381;52.754;18.258;2023-02-01T06:06:31;16.60;;;3.90;;
44662;SDS011;30381;52.754;18.258;2023-02-01T06:08:57;20.20;;;3.40;;
44662;SDS011;30381;52.754;18.258;2023-02-01T06:11:24;18.70;;;3.20;;
44662;SDS011;30381;52.754;18.258;2023-02-01T06:13:52;23.90;;;5.40;;
44662;SDS011;30381;52.754;18.258;2023-02-01T06:16:21;17.60;;;3.40;;
44662;SDS011;30381;52.754;18.258;2023-02-01T06:18:49;17.80;;;3.20;;
44662;SDS011;30381;52.754;18.258;2023-02-01T06:21:48;23.30;;;4.90;;
44662;SDS011;30381;52.754;18.258;2023-02-01T06:24:22;20.80;;;3.50;;
44662;SDS011;30381;52.754;18.258;2023-02-01T06:26:54;20.40;;;4.30;;
44662;SDS011;30381;52.754;18.258;2023-02-01T06:29:21;18.50;;;3.40;;
44662;SDS011;30381;52.754;18.258;2023-02-01T06:31:47;20.30;;;3.20;;
44662;SDS011;30381;52.754;18.258;2023-02-01T06:34:14;18.30;;;3.00;;
44662;SDS011;30381;52.754;18.258;2023-02-01T06:36:56;17.00;;;2.80;;
44662;SDS011;30381;52.754;18.258;2023-02-01T06:39:24;16.30;;;3.00;;
44662;SDS011;30381;52.754;18.258;2023-02-01T06:41:56;15.60;;;2.80;;
44662;SDS011;30381;52.754;18.258;2023-02-01T06:44:22;14.80;;;3.00;;
44662;SDS011;30381;52.754;18.258;2023-02-01T06:46:52;21.50;;;3.50;;
44662;SDS011;30381;52.754;18.258;2023-02-01T06:49:36;17.30;;;2.90;;
44662;SDS011;30381;52.754;18.258;2023-02-01T06:52:03;20.40;;;3.30;;
44662;SDS011;30381;52.754;18.258;2023-02-01T06:54:29;20.90;;;3.10;;
44662;SDS011;30381;52.754;18.258;2023-02-01T06:57:00;17.80;;;3.80;;
44662;SDS011;30381;52.754;18.258;2023-02-01T06:59:30;17.40;;;3.10;;
44662;SDS011;30381;52.754;18.258;2023-02-01T07:05:07;16.60;;;2.30;;
44662;SDS011;30381;52.754;18.258;2023-02-01T07:07:38;16.20;;;3.30;;
44662;SDS011;30381;52.754;18.258;2023-02-01T07:10:16;22.00;;;3.50;;
44662;SDS011;30381;52.754;18.258;2023-02-01T07:12:43;25.40;;;4.60;;
44662;SDS011;30381;52.754;18.258;2023-02-01T07:15:09;16.00;;;3.10;;
44662;SDS011;30381;52.754;18.258;2023-02-01T07:17:43;14.50;;;2.80;;
44662;SDS011;30381;52.754;18.258;2023-02-01T07:20:10;14.10;;;3.00;;
44662;SDS011;30381;52.754;18.258;2023-02-01T07:22:39;15.70;;;3.00;;
44662;SDS011;30381;52.754;18.258;2023-02-01T07:25:08;16.20;;;3.60;;
44662;SDS011;30381;52.754;18.258;2023-02-01T07:27:47;12.70;;;3.00;;
44662;SDS011;30381;52.754;18.258;2023-02-01T07:30:35;17.10;;;3.00;;
44662;SDS011;30381;52.754;18.258;2023-02-01T07:33:06;14.00;;;3.10;;
44662;SDS011;30381;52.754;18.258;2023-02-01T07:35:35;19.70;;;5.00;;
44662;SDS011;30381;52.754;18.258;2023-02-01T07:38:20;17.30;;;2.80;;
44662;SDS011;30381;52.754;18.258;2023-02-01T07:40:58;21.60;;;4.50;;
44662;SDS011;30381;52.754;18.258;2023-02-01T07:43:29;17.90;;;3.50;;
44662;SDS011;30381;52.754;18.258;2023-02-01T07:45:56;14.80;;;2.70;;
44662;SDS011;30381;52.754;18.258;2023-02-01T07:48:23;11.90;;;2.20;;
44662;SDS011;30381;52.754;18.258;2023-02-01T07:51:01;14.10;;;3.30;;
44662;SDS011;30381;52.754;18.258;2023-02-01T07:53:37;16.80;;;3.90;;
44662;SDS011;30381;52.754;18.258;2023-02-01T07:56:08;17.30;;;3.50;;
44662;SDS011;30381;52.754;18.258;2023-02-01T07:58:38;17.60;;;3.00;;
44662;SDS011;30381;52.754;18.258;2023-02-01T08:01:11;16.60;;;4.20;;
44662;SDS011;30381;52.754;18.258;2023-02-01T08:03:54;18.80;;;4.40;;
44662;SDS011;30381;52.754;18.258;2023-02-01T08:06:29;21.30;;;7.40;;
44662;SDS011;30381;52.754;18.258;2023-02-01T08:08:59;15.50;;;4.00;;
44662;SDS011;30381;52.754;18.258;2023-02-01T08:11:25;20.90;;;4.70;;
44662;SDS011;30381;52.754;18.258;2023-02-01T08:13:52;18.80;;;5.40;;
44662;SDS011;30381;52.754;18.258;2023-02-01T08:16:22;15.30;;;4.30;;
44662;SDS011;30381;52.754;18.258;2023-02-01T08:18:50;19.90;;;7.30;;
44662;SDS011;30381;52.754;18.258;2023-02-01T08:21:18;19.40;;;5.40;;
44662;SDS011;30381;52.754;18.258;2023-02-01T08:23:48;21.50;;;5.30;;
44662;SDS011;30381;52.754;18.258;2023-02-01T08:26:19;18.80;;;4.70;;
44662;SDS011;30381;52.754;18.258;2023-02-01T08:28:52;24.40;;;4.70;;
44662;SDS011;30381;52.754;18.258;2023-02-01T08:31:23;14.10;;;3.50;;
44662;SDS011;30381;52.754;18.258;2023-02-01T08:33:51;21.20;;;4.50;;
44662;SDS011;30381;52.754;18.258;2023-02-01T08:36:22;29.50;;;9.40;;
44662;SDS011;30381;52.754;18.258;2023-02-01T08:38:50;14.30;;;3.10;;
44662;SDS011;30381;52.754;18.258;2023-02-01T08:41:18;13.40;;;3.10;;
44662;SDS011;30381;52.754;18.258;2023-02-01T08:43:47;16.40;;;4.10;;
44662;SDS011;30381;52.754;18.258;2023-02-01T08:46:13;12.60;;;3.80;;
44662;SDS011;30381;52.754;18.258;2023-02-01T08:48:40;23.70;;;7.30;;
44662;SDS011;30381;52.754;18.258;2023-02-01T08:51:10;22.40;;;5.80;;
44662;SDS011;30381;52.754;18.258;2023-02-01T08:53:38;26.90;;;8.40;;
44662;SDS011;30381;52.754;18.258;2023-02-01T08:56:07;30.70;;;8.50;;
44662;SDS011;30381;52.754;18.258;2023-02-01T08:58:35;54.60;;;21.00;;
44662;SDS011;30381;52.754;18.258;2023-02-01T09:01:08;31.80;;;10.30;;
44662;SDS011;30381;52.754;18.258;2023-02-01T09:03:38;61.10;;;16.30;;
44662;SDS011;30381;52.754;18.258;2023-02-01T09:06:06;44.60;;;17.90;;
44662;SDS011;30381;52.754;18.258;2023-02-01T09:08:35;28.80;;;12.10;;
44662;SDS011;30381;52.754;18.258;2023-02-01T09:11:04;24.00;;;5.50;;
44662;SDS011;30381;52.754;18.258;2023-02-01T09:13:32;31.50;;;10.00;;
44662;SDS011;30381;52.754;18.258;2023-02-01T09:15:59;24.30;;;8.30;;
44662;SDS011;30381;52.754;18.258;2023-02-01T09:18:26;22.00;;;5.80;;
44662;SDS011;30381;52.754;18.258;2023-02-01T09:20:52;23.50;;;6.60;;
44662;SDS011;30381;52.754;18.258;2023-02-01T09:23:18;28.10;;;8.40;;
44662;SDS011;30381;52.754;18.258;2023-02-01T09:25:46;42.10;;;15.30;;
44662;SDS011;30381;52.754;18.258;2023-02-01T09:28:16;29.20;;;8.10;;
44662;SDS011;30381;52.754;18.258;2023-02-01T09:30:42;43.80;;;13.50;;
44662;SDS011;30381;52.754;18.258;2023-02-01T09:33:09;44.60;;;17.20;;
44662;SDS011;30381;52.754;18.258;2023-02-01T09:35:35;39.90;;;11.90;;
44662;SDS011;30381;52.754;18.258;2023-02-01T09:38:01;39.60;;;12.50;;
44662;SDS011;30381;52.754;18.258;2023-02-01T09:40:27;25.40;;;7.90;;
44662;SDS011;30381;52.754;18.258;2023-02-01T09:46:06;34.30;;;9.80;;
44662;SDS011;30381;52.754;18.258;2023-02-01T09:48:52;68.20;;;18.10;;
44662;SDS011;30381;52.754;18.258;2023-02-01T09:51:21;40.90;;;11.70;;
44662;SDS011;30381;52.754;18.258;2023-02-01T09:53:55;45.70;;;14.40;;
44662;SDS011;30381;52.754;18.258;2023-02-01T09:56:26;44.90;;;12.50;;
44662;SDS011;30381;52.754;18.258;2023-02-01T10:01:34;52.70;;;14.00;;
44662;SDS011;30381;52.754;18.258;2023-02-01T10:04:06;59.30;;;14.60;;
44662;SDS011;30381;52.754;18.258;2023-02-01T10:18:00;113.30;;;41.90;;
44662;SDS011;30381;52.754;18.258;2023-02-01T10:23:29;166.60;;;38.90;;
44662;SDS011;30381;52.754;18.258;2023-02-01T10:26:25;94.10;;;20.40;;
44662;SDS011;30381;52.754;18.258;2023-02-01T10:28:56;62.40;;;13.90;;
44662;SDS011;30381;52.754;18.258;2023-02-01T10:31:26;47.40;;;11.50;;
44662;SDS011;30381;52.754;18.258;2023-02-01T10:33:57;78.70;;;16.60;;
44662;SDS011;30381;52.754;18.258;2023-02-01T10:36:34;75.40;;;17.40;;
44662;SDS011;30381;52.754;18.258;2023-02-01T10:39:05;44.00;;;10.30;;
44662;SDS011;30381;52.754;18.258;2023-02-01T10:41:34;26.80;;;7.50;;
44662;SDS011;30381;52.754;18.258;2023-02-01T10:44:03;30.00;;;8.80;;
44662;SDS011;30381;52.754;18.258;2023-02-01T10:46:34;30.70;;;8.50;;
44662;SDS011;30381;52.754;18.258;2023-02-01T10:49:01;20.30;;;7.20;;
44662;SDS011;30381;52.754;18.258;2023-02-01T10:51:39;20.70;;;5.70;;
44662;SDS011;30381;52.754;18.258;2023-02-01T10:54:16;25.00;;;6.10;;
44662;SDS011;30381;52.754;18.258;2023-02-01T10:56:46;26.80;;;9.10;;
44662;SDS011;30381;52.754;18.258;2023-02-01T10:59:15;22.90;;;6.70;;
44662;SDS011;30381;52.754;18.258;2023-02-01T11:01:45;17.80;;;5.70;;
44662;SDS011;30381;52.754;18.258;2023-02-01T11:04:14;20.10;;;4.80;;
44662;SDS011;30381;52.754;18.258;2023-02-01T11:06:51;20.40;;;6.10;;
44662;SDS011;30381;52.754;18.258;2023-02-01T11:09:31;23.10;;;5.70;;
44662;SDS011;30381;52.754;18.258;2023-02-01T11:11:58;20.00;;;5.10;;
44662;SDS011;30381;52.754;18.258;2023-02-01T11:16:56;23.70;;;5.50;;
44662;SDS011;30381;52.754;18.258;2023-02-01T11:19:26;21.20;;;5.80;;
44662;SDS011;30381;52.754;18.258;2023-02-01T11:21:55;17.70;;;5.10;;
44662;SDS011;30381;52.754;18.258;2023-02-01T11:24:25;14.50;;;4.50;;
44662;SDS011;30381;52.754;18.258;2023-02-01T11:26:58;19.60;;;5.40;;
44662;SDS011;30381;52.754;18.258;2023-02-01T11:29:26;23.00;;;5.40;;
44662;SDS011;30381;52.754;18.258;2023-02-01T11:34:37;25.50;;;5.90;;
44662;SDS011;30381;52.754;18.258;2023-02-01T11:37:37;133.10;;;44.20;;
44662;SDS011;30381;52.754;18.258;2023-02-01T11:42:53;18.90;;;6.40;;
44662;SDS011;30381;52.754;18.258;2023-02-01T11:45:24;15.40;;;3.40;;
44662;SDS011;30381;52.754;18.258;2023-02-01T11:47:54;18.10;;;4.50;;
44662;SDS011;30381;52.754;18.258;2023-02-01T11:50:34;17.40;;;4.60;;
44662;SDS011;30381;52.754;18.258;2023-02-01T11:53:23;11.50;;;3.30;;
44662;SDS011;30381;52.754;18.258;2023-02-01T11:56:16;11.50;;;3.40;;
44662;SDS011;30381;52.754;18.258;2023-02-01T11:59:40;12.60;;;3.50;;
44662;SDS011;30381;52.754;18.258;2023-02-01T12:02:00;12.30;;;4.10;;
44662;SDS011;30381;52.754;18.258;2023-02-01T12:13:14;10.60;;;3.90;;
44662;SDS011;30381;52.754;18.258;2023-02-01T12:18:39;7.80;;;2.70;;
44662;SDS011;30381;52.754;18.258;2023-02-01T12:21:24;11.90;;;4.30;;
44662;SDS011;30381;52.754;18.258;2023-02-01T12:32:59;12.60;;;4.00;;
44662;SDS011;30381;52.754;18.258;2023-02-01T12:35:13;13.50;;;4.10;;
44662;SDS011;30381;52.754;18.258;2023-02-01T12:40:37;8.30;;;2.70;;
44662;SDS011;30381;52.754;18.258;2023-02-01T12:46:05;9.20;;;3.40;;
44662;SDS011;30381;52.754;18.258;2023-02-01T12:48:46;11.70;;;2.90;;
44662;SDS011;30381;52.754;18.258;2023-02-01T12:51:16;11.80;;;3.20;;
44662;SDS011;30381;52.754;18.258;2023-02-01T12:53:51;13.10;;;3.80;;
44662;SDS011;30381;52.754;18.258;2023-02-01T12:56:23;9.70;;;3.20;;
44662;SDS011;30381;52.754;18.258;2023-02-01T12:59:01;9.80;;;3.40;;
44662;SDS011;30381;52.754;18.258;2023-02-01T13:01:34;9.80;;;3.30;;
44662;SDS011;30381;52.754;18.258;2023-02-01T13:04:13;27.00;;;9.70;;
44662;SDS011;30381;52.754;18.258;2023-02-01T13:06:54;13.60;;;5.30;;
44662;SDS011;30381;52.754;18.258;2023-02-01T13:12:53;12.50;;;4.70;;
44662;SDS011;30381;52.754;18.258;2023-02-01T13:15:42;12.50;;;4.40;;
44662;SDS011;30381;52.754;18.258;2023-02-01T13:18:15;11.00;;;4.10;;
44662;SDS011;30381;52.754;18.258;2023-02-01T13:23:37;11.60;;;3.60;;
44662;SDS011;30381;52.754;18.258;2023-02-01T13:26:06;14.30;;;3.60;;
44662;SDS011;30381;52.754;18.258;2023-02-01T13:28:44;14.30;;;4.40;;
44662;SDS011;30381;52.754;18.258;2023-02-01T13:39:51;18.20;;;6.20;;
44662;SDS011;30381;52.754;18.258;2023-02-01T13:42:34;18.70;;;5.50;;
44662;SDS011;30381;52.754;18.258;2023-02-01T13:45:20;15.70;;;4.70;;
44662;SDS011;30381;52.754;18.258;2023-02-01T13:47:50;12.80;;;4.30;;
44662;SDS011;30381;52.754;18.258;2023-02-01T13:50:27;17.80;;;5.10;;
44662;SDS011;30381;52.754;18.258;2023-02-01T13:55:37;16.40;;;5.40;;
44662;SDS011;30381;52.754;18.258;2023-02-01T13:58:29;24.90;;;10.90;;
44662;SDS011;30381;52.754;18.258;2023-02-01T14:03:59;15.30;;;4.80;;
44662;SDS011;30381;52.754;18.258;2023-02-01T14:11:35;10.60;;;4.20;;
44662;SDS011;30381;52.754;18.258;2023-02-01T14:16:41;14.50;;;5.30;;
44662;SDS011;30381;52.754;18.258;2023-02-01T14:19:24;14.10;;;5.20;;
44662;SDS011;30381;52.754;18.258;2023-02-01T14:21:55;28.10;;;10.00;;
44662;SDS011;30381;52.754;18.258;2023-02-01T14:24:28;27.60;;;8.70;;
44662;SDS011;30381;52.754;18.258;2023-02-01T14:27:00;12.30;;;5.10;;
44662;SDS011;30381;52.754;18.258;2023-02-01T14:29:42;18.10;;;5.50;;
44662;SDS011;30381;52.754;18.258;2023-02-01T14:39:47;14.70;;;4.40;;
44662;SDS011;30381;52.754;18.258;2023-02-01T14:47:48;11.20;;;4.30;;
44662;SDS011;30381;52.754;18.258;2023-02-01T14:55:45;12.40;;;3.80;;
44662;SDS011;30381;52.754;18.258;2023-02-01T14:58:40;13.20;;;3.10;;
44662;SDS011;30381;52.754;18.258;2023-02-01T15:06:54;18.10;;;6.20;;
44662;SDS011;30381;52.754;18.258;2023-02-01T15:14:43;16.60;;;5.70;;
44662;SDS011;30381;52.754;18.258;2023-02-01T15:22:26;15.40;;;4.60;;
44662;SDS011;30381;52.754;18.258;2023-02-01T15:25:00;17.70;;;6.10;;
44662;SDS011;30381;52.754;18.258;2023-02-01T15:27:36;17.90;;;6.60;;
44662;SDS011;30381;52.754;18.258;2023-02-01T15:30:06;16.90;;;5.30;;
44662;SDS011;30381;52.754;18.258;2023-02-01T15:32:39;15.90;;;5.50;;
44662;SDS011;30381;52.754;18.258;2023-02-01T15:41:20;12.20;;;3.70;;
44662;SDS011;30381;52.754;18.258;2023-02-01T15:44:03;12.00;;;4.10;;
44662;SDS011;30381;52.754;18.258;2023-02-01T15:46:55;18.90;;;9.20;;
44662;SDS011;30381;52.754;18.258;2023-02-01T15:49:32;14.70;;;4.60;;
44662;SDS011;30381;52.754;18.258;2023-02-01T15:52:08;16.30;;;9.50;;
44662;SDS011;30381;52.754;18.258;2023-02-01T15:55:04;13.00;;;4.90;;
44662;SDS011;30381;52.754;18.258;2023-02-01T15:58:01;22.20;;;8.80;;
44662;SDS011;30381;52.754;18.258;2023-02-01T16:01:06;22.70;;;8.50;;
44662;SDS011;30381;52.754;18.258;2023-02-01T16:07:20;20.40;;;6.30;;
44662;SDS011;30381;52.754;18.258;2023-02-01T16:10:00;22.00;;;7.50;;
44662;SDS011;30381;52.754;18.258;2023-02-01T16:12:51;27.10;;;10.00;;
44662;SDS011;30381;52.754;18.258;2023-02-01T16:19:11;24.90;;;11.70;;
44662;SDS011;30381;52.754;18.258;2023-02-01T16:30:15;18.10;;;5.10;;
44662;SDS011;30381;52.754;18.258;2023-02-01T16:33:30;15.80;;;4.70;;
44662;SDS011;30381;52.754;18.258;2023-02-01T16:40:35;17.00;;;4.60;;
44662;SDS011;30381;52.754;18.258;2023-02-01T16:43:26;15.90;;;5.20;;
44662;SDS011;30381;52.754;18.258;2023-02-01T16:45:55;15.70;;;4.30;;
44662;SDS011;30381;52.754;18.258;2023-02-01T16:48:29;13.60;;;4.30;;
44662;SDS011;30381;52.754;18.258;2023-02-01T16:51:02;16.30;;;7.10;;
44662;SDS011;30381;52.754;18.258;2023-02-01T16:53:46;14.60;;;6.20;;
44662;SDS011;30381;52.754;18.258;2023-02-01T17:03:21;24.40;;;11.10;;
44662;SDS011;30381;52.754;18.258;2023-02-01T17:10:51;20.20;;;9.80;;
44662;SDS011;30381;52.754;18.258;2023-02-01T17:16:53;25.90;;;8.80;;
44662;SDS011;30381;52.754;18.258;2023-02-01T17:20:16;31.80;;;11.80;;
44662;SDS011;30381;52.754;18.258;2023-02-01T17:23:50;15.60;;;7.90;;
44662;SDS011;30381;52.754;18.258;2023-02-01T17:40:11;41.40;;;12.30;;
44662;SDS011;30381;52.754;18.258;2023-02-01T17:43:40;48.70;;;13.20;;
44662;SDS011;30381;52.754;18.258;2023-02-01T17:47:24;33.90;;;9.50;;
44662;SDS011;30381;52.754;18.258;2023-02-01T17:53:56;19.00;;;6.10;;
44662;SDS011;30381;52.754;18.258;2023-02-01T17:56:58;33.60;;;10.20;;
44662;SDS011;30381;52.754;18.258;2023-02-01T18:06:25;38.70;;;11.50;;
44662;SDS011;30381;52.754;18.258;2023-02-01T19:29:03;23.20;;;7.80;;
44662;SDS011;30381;52.754;18.258;2023-02-01T19:32:37;19.80;;;7.70;;
44662;SDS011;30381;52.754;18.258;2023-02-01T19:36:25;21.20;;;7.60;;
44662;SDS011;30381;52.754;18.258;2023-02-01T19:54:52;44.90;;;19.70;;
44662;SDS011;30381;52.754;18.258;2023-02-01T19:57:18;53.40;;;18.90;;
44662;SDS011;30381;52.754;18.258;2023-02-01T19:59:43;31.40;;;13.20;;
44662;SDS011;30381;52.754;18.258;2023-02-01T20:02:13;18.30;;;7.70;;
44662;SDS011;30381;52.754;18.258;2023-02-01T20:04:40;22.90;;;8.10;;
44662;SDS011;30381;52.754;18.258;2023-02-01T20:07:06;23.20;;;13.20;;
44662;SDS011;30381;52.754;18.258;2023-02-01T20:09:36;32.00;;;14.10;;
44662;SDS011;30381;52.754;18.258;2023-02-01T20:12:10;23.20;;;10.10;;
44662;SDS011;30381;52.754;18.258;2023-02-01T20:14:39;22.50;;;9.60;;
44662;SDS011;30381;52.754;18.258;2023-02-01T20:17:05;21.60;;;9.50;;
44662;SDS011;30381;52.754;18.258;2023-02-01T20:19:34;29.20;;;13.70;;
44662;SDS011;30381;52.754;18.258;2023-02-01T20:22:05;18.50;;;8.80;;
44662;SDS011;30381;52.754;18.258;2023-02-01T20:24:43;15.20;;;7.80;;
44662;SDS011;30381;52.754;18.258;2023-02-01T20:27:27;11.40;;;5.90;;
44662;SDS011;30381;52.754;18.258;2023-02-01T20:30:20;11.80;;;5.30;;
44662;SDS011;30381;52.754;18.258;2023-02-01T20:33:05;10.00;;;4.80;;
44662;SDS011;30381;52.754;18.258;2023-02-01T20:36:00;9.10;;;3.90;;
44662;SDS011;30381;52.754;18.258;2023-02-01T20:38:48;11.90;;;4.80;;
44662;SDS011;30381;52.754;18.258;2023-02-01T20:41:46;12.10;;;5.20;;
44662;SDS011;30381;52.754;18.258;2023-02-01T20:44:44;11.50;;;4.70;;
44662;SDS011;30381;52.754;18.258;2023-02-01T20:47:33;10.70;;;4.80;;
44662;SDS011;30381;52.754;18.258;2023-02-01T21:12:51;13.60;;;5.60;;